Maynooth, Canada
Current Conditions -  °F | °C
As of 7:00 PM on Friday 24 Oct 2014 (Local Time) from CYWA Reporting Station
Clear Clear  
Wind Chill: 46°   Ceiling: Unl
Heat Index: 48°   Visibility: 9mi
Dew Point: 28°   Wind: 6mph
Humidity: 46%   Direction: 290°WNW
Pressure: 29.87"   Gusts: NA
Location:  45.23°N, 77.93°W
Report Text: CYWA 242300Z AUTO 29005KT 9SM CLR 09/M02 A2987 RMK SLP119
Loading
Personal Weather Stations






























Interactive Weather Map
Tropical Storm Tracking
New forecast layout! Learn more

10-Day Weather Forecast

Advertisements
Track Severe Weather on mobile